Time;durP1;ratioP1;P1;durP2;ratioP2;P2;SDS_P1;SDS_P2;PMS_P1;PMS_P2;Temp;Humidity;BMP_temperature;BMP_pressure;BME280_temperature;BME280_humidity;BME280_pressure;Samples;Min_cycle;Max_cycle;Signal;HPM_P1;HPM_P2
2021/07/02 00:02:03;;;;;;;;;26.25;26.25;;;;;19.21;60.29;101475.66;6242282;22;45196;-91
2021/07/02 00:04:28;;;;;;;;;29.25;25.75;;;;;19.18;60.14;101481.16;6243097;22;45129;-91
2021/07/02 00:06:54;;;;;;;;;26.25;24.50;;;;;19.11;60.04;101471.88;6244010;22;45336;-91
2021/07/02 00:09:19;;;;;;;;;27.25;27.25;;;;;19.12;60.01;101480.66;6242542;22;45724;-91
2021/07/02 00:11:45;;;;;;;;;28.25;25.50;;;;;19.04;60.13;101475.84;6242416;22;45269;-92
2021/07/02 00:14:10;;;;;;;;;28.50;27.25;;;;;19.03;60.30;101476.75;6242736;22;45452;-91
2021/07/02 00:16:36;;;;;;;;;28.00;24.50;;;;;18.98;59.99;101463.00;6242281;22;46900;-91
2021/07/02 00:19:03;;;;;;;;;31.00;29.50;;;;;18.93;60.27;101472.03;6242115;22;45334;-91
2021/07/02 00:21:29;;;;;;;;;30.50;29.50;;;;;18.92;60.39;101470.34;6242133;22;45386;-90
2021/07/02 00:23:54;;;;;;;;;32.00;29.75;;;;;18.89;60.36;101467.03;6268642;22;45318;-91
2021/07/02 00:26:20;;;;;;;;;34.25;30.00;;;;;18.86;60.77;101468.06;6241870;22;47956;-91
2021/07/02 00:28:45;;;;;;;;;29.75;27.25;;;;;18.81;60.58;101459.59;6241574;22;45511;-91
2021/07/02 00:31:11;;;;;;;;;38.25;30.25;;;;;18.79;60.85;101466.75;6268383;22;45256;-91
2021/07/02 00:33:37;;;;;;;;;33.75;31.50;;;;;18.76;60.88;101467.78;6241718;22;45240;-91
2021/07/02 00:36:03;;;;;;;;;30.75;29.75;;;;;18.75;60.80;101462.59;6241949;22;46934;-91
2021/07/02 00:38:28;;;;;;;;;33.50;29.50;;;;;18.70;60.75;101462.84;6243495;22;45227;-91
2021/07/02 00:40:54;;;;;;;;;30.50;28.25;;;;;18.66;60.90;101463.97;6242491;22;45269;-91
2021/07/02 00:43:19;;;;;;;;;31.75;29.50;;;;;18.66;60.98;101472.72;6242277;22;45602;-91
2021/07/02 00:45:45;;;;;;;;;29.50;28.75;;;;;18.61;60.96;101474.78;6267011;22;46924;-91
2021/07/02 00:48:10;;;;;;;;;29.25;27.75;;;;;18.61;60.77;101479.22;6267559;22;45480;-91
2021/07/02 00:50:35;;;;;;;;;29.50;27.25;;;;;18.56;60.76;101479.47;6242179;22;45415;-91
2021/07/02 00:53:04;;;;;;;;;33.75;30.00;;;;;18.53;61.01;101480.53;6241973;22;45294;-90
2021/07/02 00:55:29;;;;;;;;;36.50;29.00;;;;;18.50;61.05;101478.06;6267554;22;47158;-90
2021/07/02 00:57:55;;;;;;;;;26.75;26.75;;;;;18.49;60.96;101479.00;6241498;22;45656;-91
2021/07/02 01:00:21;;;;;;;;;30.25;29.00;;;;;18.43;60.99;101472.28;6243836;22;45422;-91
2021/07/02 01:02:46;;;;;;;;;34.75;29.25;;;;;18.43;61.09;101471.44;6242440;22;45380;-91
2021/07/02 01:05:12;;;;;;;;;33.50;28.25;;;;;18.39;61.48;101475.19;6267291;22;47681;-90
2021/07/02 01:07:43;;;;;;;;;34.00;28.25;;;;;18.38;60.92;101476.13;6241588;22;45288;-90
2021/07/02 01:10:10;;;;;;;;;31.25;29.50;;;;;18.32;61.10;101479.94;6267674;22;45326;-91
2021/07/02 01:12:36;;;;;;;;;31.75;30.00;;;;;18.30;61.26;101477.41;6267853;22;45267;-90
2021/07/02 01:15:02;;;;;;;;;35.00;31.00;;;;;18.29;61.53;101483.59;6242693;22;45405;-91
2021/07/02 01:17:28;;;;;;;;;28.25;25.75;;;;;18.27;61.41;101474.09;6241896;22;45721;-90
2021/07/02 01:19:54;;;;;;;;;38.25;30.75;;;;;18.19;61.47;101464.00;6268811;22;45173;-91
2021/07/02 01:22:25;;;;;;;;;30.50;28.75;;;;;18.18;61.44;101461.47;6243708;22;45510;-91
2021/07/02 01:24:52;;;;;;;;;31.75;29.50;;;;;18.18;61.66;101467.56;6242412;22;47016;-90
2021/07/02 01:27:18;;;;;;;;;33.00;29.75;;;;;18.16;61.78;101466.81;6269051;22;46250;-91
2021/07/02 01:29:44;;;;;;;;;30.75;28.00;;;;;18.14;61.51;101473.94;6245025;22;45208;-91
2021/07/02 01:32:10;;;;;;;;;33.75;31.50;;;;;18.10;61.33;101472.44;6245490;22;45244;-90
2021/07/02 01:34:36;;;;;;;;;34.75;30.75;;;;;18.08;61.59;101463.75;6244835;22;45385;-91
2021/07/02 01:37:01;;;;;;;;;40.00;34.25;;;;;18.06;61.41;101465.59;6242384;22;45433;-91
2021/07/02 01:39:27;;;;;;;;;45.25;38.00;;;;;18.02;61.90;101463.13;6243287;22;45283;-91
2021/07/02 01:41:53;;;;;;;;;39.50;35.75;;;;;18.01;61.43;101452.69;6243347;22;45317;-90
2021/07/02 01:44:18;;;;;;;;;47.00;36.50;;;;;17.99;61.68;101458.03;6244410;22;45366;-90
2021/07/02 01:46:44;;;;;;;;;47.00;39.50;;;;;17.99;61.91;101457.19;6243048;22;45386;-91
2021/07/02 01:49:10;;;;;;;;;47.50;38.50;;;;;17.95;61.58;101458.31;6242769;22;45385;-91
2021/07/02 01:51:35;;;;;;;;;46.75;37.25;;;;;17.95;61.85;101458.31;6243363;22;45189;-90
2021/07/02 01:54:01;;;;;;;;;45.50;38.25;;;;;17.89;61.82;101452.44;6268528;22;46962;-91
2021/07/02 01:56:26;;;;;;;;;47.50;38.00;;;;;17.88;61.64;101458.63;6242696;22;45387;-90
2021/07/02 01:58:53;;;;;;;;;50.50;40.25;;;;;17.87;62.04;101461.38;6242463;22;45141;-91
2021/07/02 02:01:19;;;;;;;;;47.00;39.50;;;;;17.84;61.93;101469.41;6269376;22;45255;-91
2021/07/02 02:03:44;;;;;;;;;47.25;38.50;;;;;17.82;61.66;101460.78;6267926;22;47079;-90
2021/07/02 02:06:10;;;;;;;;;48.25;40.25;;;;;17.75;61.93;101450.59;6244725;22;45164;-91
2021/07/02 02:08:35;;;;;;;;;50.50;40.75;;;;;17.73;61.91;101447.16;6242778;22;45348;-89
2021/07/02 02:11:01;;;;;;;;;50.25;41.50;;;;;17.74;62.11;101456.75;6244397;22;45393;-91
2021/07/02 02:13:26;;;;;;;;;47.50;39.50;;;;;17.71;62.28;101453.44;6244804;22;45600;-91
2021/07/02 02:15:52;;;;;;;;;50.25;42.75;;;;;17.66;62.08;101451.09;6242455;22;45405;-90
2021/07/02 02:18:18;;;;;;;;;46.75;39.75;;;;;17.64;62.28;101447.69;6243032;22;45161;-91
2021/07/02 02:20:43;;;;;;;;;46.75;38.25;;;;;17.63;61.94;101449.47;6243286;22;45322;-90
2021/07/02 02:23:09;;;;;;;;;47.75;39.75;;;;;17.63;62.08;101451.22;6268169;22;48262;-90
2021/07/02 02:25:34;;;;;;;;;51.25;41.50;;;;;17.60;62.32;101446.16;6268757;22;45334;-91
2021/07/02 02:27:59;;;;;;;;;49.25;40.25;;;;;17.57;62.60;101441.03;6242690;22;45365;-90
2021/07/02 02:30:25;;;;;;;;;52.75;41.75;;;;;17.54;62.60;101446.50;6242477;22;45365;-90
2021/07/02 02:32:51;;;;;;;;;54.25;43.50;;;;;17.51;62.68;101439.63;6242907;22;47147;-90
2021/07/02 02:35:17;;;;;;;;;51.00;40.75;;;;;17.49;62.36;101442.31;6244383;22;45313;-90
2021/07/02 02:37:42;;;;;;;;;55.25;44.50;;;;;17.50;62.04;101448.44;6242817;22;45280;-91
2021/07/02 02:40:08;;;;;;;;;49.00;41.50;;;;;17.48;62.38;101439.78;6242565;22;45168;-91
2021/07/02 02:42:35;;;;;;;;;50.75;41.75;;;;;17.47;62.13;101440.72;6268844;22;46761;-91
2021/07/02 02:45:00;;;;;;;;;50.50;41.00;;;;;17.42;62.60;101442.72;6242076;22;45405;-90
2021/07/02 02:47:26;;;;;;;;;50.50;40.25;;;;;17.39;62.39;101443.75;6244594;22;45302;-91
2021/07/02 02:49:51;;;;;;;;;53.50;42.75;;;;;17.38;62.46;101436.78;6244391;22;45461;-91
2021/07/02 02:52:17;;;;;;;;;50.00;42.25;;;;;17.38;62.71;101438.56;6242495;22;46983;-90
2021/07/02 02:54:42;;;;;;;;;53.00;44.00;;;;;17.33;62.69;101436.19;6242327;22;45760;-90
2021/07/02 02:57:08;;;;;;;;;50.75;41.25;;;;;17.34;62.62;101446.63;6244219;22;45417;-90
2021/07/02 02:59:36;;;;;;;;;54.00;42.75;;;;;17.30;62.41;101434.56;6242702;22;45387;-90
2021/07/02 03:02:04;;;;;;;;;50.50;40.00;;;;;17.30;62.78;101431.06;6242060;22;47130;-91
2021/07/02 03:04:30;;;;;;;;;49.00;41.50;;;;;17.26;62.43;101430.41;6244245;22;45392;-91
2021/07/02 03:06:56;;;;;;;;;51.00;42.00;;;;;17.25;62.33;101428.69;6242962;22;45628;-90
2021/07/02 03:09:21;;;;;;;;;48.75;40.25;;;;;17.27;62.88;101434.72;6242218;22;45275;-90
2021/07/02 03:11:51;;;;;;;;;49.50;39.75;;;;;17.23;62.80;101430.56;6244687;22;45373;-91
2021/07/02 03:14:18;;;;;;;;;50.00;39.50;;;;;17.20;62.92;101431.59;6243119;22;45271;-90
2021/07/02 03:16:43;;;;;;;;;52.50;42.50;;;;;17.20;62.89;101436.84;6268426;22;45331;-90
2021/07/02 03:19:09;;;;;;;;;50.50;41.25;;;;;17.19;63.07;101429.03;6242505;22;45345;-90
2021/07/02 03:21:34;;;;;;;;;47.75;39.00;;;;;17.19;62.93;101434.28;6241959;22;47113;-90
2021/07/02 03:23:59;;;;;;;;;47.25;38.75;;;;;17.14;62.93;101423.16;6242104;22;45409;-90
2021/07/02 03:26:25;;;;;;;;;46.50;38.75;;;;;17.16;62.98;101440.56;6242843;22;45508;-91
2021/07/02 03:28:50;;;;;;;;;46.25;38.50;;;;;17.12;63.16;101425.03;6242648;22;45532;-90
2021/07/02 03:31:16;;;;;;;;;44.25;38.50;;;;;17.12;63.03;101430.28;6242287;22;47453;-90
2021/07/02 03:33:41;;;;;;;;;44.50;38.25;;;;;17.12;63.26;101433.75;6241661;22;45429;-89
2021/07/02 03:36:06;;;;;;;;;44.25;36.00;;;;;17.11;62.96;101426.81;6244103;22;45390;-90
2021/07/02 03:38:32;;;;;;;;;48.00;36.75;;;;;17.08;63.05;101426.97;6242796;22;45379;-91
2021/07/02 03:40:58;;;;;;;;;39.50;33.50;;;;;17.09;63.05;101431.31;6241207;22;46970;-90
2021/07/02 03:43:23;;;;;;;;;43.50;37.25;;;;;17.07;63.32;101434.00;6243888;22;45394;-91
2021/07/02 03:45:49;;;;;;;;;42.50;35.00;;;;;17.05;63.17;101433.25;6244308;22;45395;-91
2021/07/02 03:48:14;;;;;;;;;43.50;36.50;;;;;17.02;62.98;101424.63;6244626;22;45310;-91
2021/07/02 03:50:40;;;;;;;;;38.25;34.00;;;;;17.02;62.79;101430.75;6244158;22;45291;-91
2021/07/02 03:53:05;;;;;;;;;37.50;33.50;;;;;17.03;63.10;101437.72;6242162;22;45335;-90
2021/07/02 03:55:31;;;;;;;;;41.50;36.50;;;;;17.00;63.24;101443.13;6268314;22;45534;-90
2021/07/02 03:57:56;;;;;;;;;42.00;36.50;;;;;17.00;63.21;101442.25;6242330;22;45517;-90
2021/07/02 04:00:22;;;;;;;;;36.75;32.50;;;;;16.99;63.15;101440.56;6243676;22;45565;-91
2021/07/02 04:02:47;;;;;;;;;36.25;33.25;;;;;16.96;63.08;101437.16;6268062;22;45231;-90
2021/07/02 04:05:13;;;;;;;;;39.25;34.25;;;;;16.92;63.59;101434.78;6242116;22;45408;-90
2021/07/02 04:07:38;;;;;;;;;36.25;32.25;;;;;16.93;63.69;101432.06;6242708;22;45480;-91
2021/07/02 04:10:05;;;;;;;;;34.25;32.75;;;;;16.95;63.39;101432.00;6241769;22;48159;-90
2021/07/02 04:12:30;;;;;;;;;40.25;34.25;;;;;16.93;63.57;101439.09;6242350;22;45525;-89
2021/07/02 04:14:56;;;;;;;;;37.50;33.50;;;;;16.91;63.66;101433.94;6267111;22;45444;-90
2021/07/02 04:17:21;;;;;;;;;39.75;35.50;;;;;16.91;63.67;101439.19;6267732;22;45395;-90
2021/07/02 04:19:46;;;;;;;;;36.00;32.00;;;;;16.89;63.35;101440.19;6241845;22;47208;-91
2021/07/02 04:22:12;;;;;;;;;39.50;33.50;;;;;16.89;63.70;101437.56;6268042;22;45636;-91
2021/07/02 04:24:37;;;;;;;;;37.00;32.00;;;;;16.91;63.64;101447.09;6243562;22;45265;-90
2021/07/02 04:27:03;;;;;;;;;34.25;31.50;;;;;16.91;63.65;101448.84;6243862;22;45305;-90
2021/07/02 04:29:29;;;;;;;;;33.75;31.75;;;;;16.90;63.97;101442.72;6267716;22;47312;-91
2021/07/02 04:31:54;;;;;;;;;34.25;31.50;;;;;16.92;63.68;101448.78;6267816;22;45579;-90
2021/07/02 04:34:19;;;;;;;;;33.00;32.00;;;;;16.94;63.83;101448.72;6242108;22;45343;-90
2021/07/02 04:36:45;;;;;;;;;34.25;30.25;;;;;16.94;64.38;101453.97;6242119;22;45264;-89
2021/07/02 04:39:11;;;;;;;;;35.00;33.00;;;;;16.93;64.42;101452.25;6267521;22;47171;-91
2021/07/02 04:41:37;;;;;;;;;35.75;28.75;;;;;16.96;64.39;101452.91;6244143;22;45339;-90
2021/07/02 04:44:04;;;;;;;;;31.25;29.50;;;;;16.96;63.82;101446.84;6243290;22;45428;-91
2021/07/02 04:46:29;;;;;;;;;34.00;31.50;;;;;17.00;64.03;101453.63;6241829;22;45294;-90
2021/07/02 04:48:55;;;;;;;;;36.50;30.25;;;;;17.04;64.27;101464.88;6243558;22;45506;-91
2021/07/02 04:51:20;;;;;;;;;30.75;28.50;;;;;17.06;64.55;101457.75;6242392;22;45599;-91
2021/07/02 04:53:45;;;;;;;;;36.75;33.75;;;;;17.08;64.74;101475.16;6269001;22;45413;-91
2021/07/02 04:56:12;;;;;;;;;31.75;28.75;;;;;17.10;64.54;101467.19;6243207;22;45370;-90
2021/07/02 04:58:40;;;;;;;;;30.50;28.75;;;;;17.11;64.63;101457.53;6242497;22;48521;-89
2021/07/02 05:01:05;;;;;;;;;32.25;29.50;;;;;17.18;64.86;101456.28;6242126;22;45231;-91
2021/07/02 05:03:31;;;;;;;;;30.75;30.00;;;;;17.24;64.58;101466.47;6268913;22;45326;-91
2021/07/02 05:05:56;;;;;;;;;34.25;31.50;;;;;17.26;64.66;101455.88;6243449;22;45423;-90
2021/07/02 05:08:24;;;;;;;;;35.50;30.25;;;;;17.31;64.87;101459.94;6243099;22;47314;-90
2021/07/02 05:10:49;;;;;;;;;30.50;27.50;;;;;17.40;65.08;101458.59;6243420;22;45254;-91
2021/07/02 05:13:15;;;;;;;;;29.50;27.25;;;;;17.41;65.02;101459.47;6243434;22;45491;-90
2021/07/02 05:15:40;;;;;;;;;28.00;26.25;;;;;17.49;65.07;101466.00;6269653;22;45408;-90
2021/07/02 05:18:06;;;;;;;;;34.50;30.75;;;;;17.55;65.97;101470.06;6268090;22;47239;-91
2021/07/02 05:20:31;;;;;;;;;36.50;32.00;;;;;17.59;65.59;101460.25;6243124;22;45393;-91
2021/07/02 05:22:57;;;;;;;;;29.25;26.00;;;;;17.69;65.53;101461.44;6243245;22;45362;-91
2021/07/02 05:25:22;;;;;;;;;32.00;29.50;;;;;17.76;65.81;101456.69;6243701;22;45358;-91
2021/07/02 05:27:48;;;;;;;;;30.75;27.75;;;;;17.83;65.79;101459.84;6244731;22;45396;-91
2021/07/02 05:30:14;;;;;;;;;31.00;29.25;;;;;17.85;65.68;101456.19;6242656;22;45396;-91
2021/07/02 05:32:39;;;;;;;;;34.00;31.50;;;;;17.95;65.85;101464.41;6243475;22;45338;-91
2021/07/02 05:35:07;;;;;;;;;37.00;33.50;;;;;18.02;66.27;101457.84;6243343;22;45498;-90
2021/07/02 05:37:32;;;;;;;;;31.25;29.50;;;;;18.09;65.84;101461.03;6268792;22;48396;-91
2021/07/02 05:39:57;;;;;;;;;31.00;27.75;;;;;18.14;65.75;101450.22;6268640;22;45528;-91
2021/07/02 05:42:24;;;;;;;;;33.00;31.00;;;;;18.25;65.78;101466.31;6243260;22;45383;-91
2021/07/02 05:44:50;;;;;;;;;26.00;25.75;;;;;18.30;65.62;101458.13;6268938;22;45688;-91
2021/07/02 05:47:15;;;;;;;;;33.25;30.25;;;;;18.35;65.86;101458.72;6242812;22;47286;-90
2021/07/02 05:49:41;;;;;;;;;33.75;29.75;;;;;18.40;66.57;101453.16;6242408;22;45390;-91
2021/07/02 05:52:06;;;;;;;;;31.75;29.00;;;;;18.49;65.44;101463.19;6243582;22;45367;-91
2021/07/02 05:54:32;;;;;;;;;34.25;30.50;;;;;18.57;65.70;101465.38;6243243;22;45743;-91
2021/07/02 05:56:58;;;;;;;;;30.50;30.25;;;;;18.65;65.84;101472.84;6242787;22;47576;-91
2021/07/02 05:59:24;;;;;;;;;39.25;33.50;;;;;18.74;65.73;101472.28;6242448;22;45414;-91
2021/07/02 06:01:49;;;;;;;;;30.75;29.00;;;;;18.79;65.64;101467.56;6243287;22;45712;-91
2021/07/02 06:04:15;;;;;;;;;32.50;28.50;;;;;18.88;65.62;101468.00;6242584;22;45400;-91
2021/07/02 06:06:40;;;;;;;;;30.00;29.00;;;;;18.96;65.48;101474.50;6243226;22;46902;-92
2021/07/02 06:09:06;;;;;;;;;33.50;31.00;;;;;19.03;65.77;101471.50;6243100;22;45280;-92
2021/07/02 06:11:31;;;;;;;;;41.00;33.50;;;;;19.09;65.59;101465.88;6269042;22;45273;-91
2021/07/02 06:13:56;;;;;;;;;34.25;30.25;;;;;19.12;65.19;101464.84;6243208;22;45362;-92
2021/07/02 06:16:22;;;;;;;;;35.75;32.25;;;;;19.19;65.60;101459.09;6243031;22;47037;-91
2021/07/02 06:18:47;;;;;;;;;33.00;30.50;;;;;19.29;65.12;101463.78;6242155;22;45222;-91
2021/07/02 06:21:13;;;;;;;;;37.50;32.25;;;;;19.35;65.38;101466.91;6245324;22;45622;-91
2021/07/02 06:23:39;;;;;;;;;31.75;30.25;;;;;19.42;65.38;101466.53;6243196;22;45292;-90
2021/07/02 06:26:06;;;;;;;;;30.75;30.25;;;;;19.48;65.36;101469.63;6268077;22;47250;-90
2021/07/02 06:28:32;;;;;;;;;31.25;29.75;;;;;19.53;65.22;101461.41;6242295;22;45247;-90
2021/07/02 06:30:58;;;;;;;;;36.75;31.25;;;;;19.63;65.18;101465.19;6242844;22;45361;-90
2021/07/02 06:33:24;;;;;;;;;30.75;30.25;;;;;19.72;64.77;101462.91;6242586;22;45489;-91
2021/07/02 06:35:51;;;;;;;;;36.50;32.75;;;;;19.71;64.69;101453.28;6243032;22;47507;-91
2021/07/02 06:38:19;;;;;;;;;36.25;33.00;;;;;19.72;64.36;101455.81;6242809;22;45688;-91
2021/07/02 06:40:44;;;;;;;;;37.25;33.25;;;;;19.74;64.34;101461.03;6242636;22;45381;-91
2021/07/02 06:43:10;;;;;;;;;37.25;33.25;;;;;19.72;64.50;101468.19;6243111;22;45427;-91
2021/07/02 06:45:35;;;;;;;;;40.00;35.25;;;;;19.75;64.33;101457.44;6242849;22;47185;-91
2021/07/02 06:48:04;;;;;;;;;37.75;33.50;;;;;19.74;64.08;101453.94;6243066;22;45385;-93
2021/07/02 06:50:32;;;;;;;;;37.00;33.50;;;;;19.77;64.55;101452.91;6268701;22;45401;-90
2021/07/02 06:53:00;;;;;;;;;42.75;36.25;;;;;19.82;64.14;101463.16;6244681;22;45376;-91
2021/07/02 06:55:26;;;;;;;;;40.00;33.50;;;;;19.82;64.17;101464.03;6242715;22;46962;-91
2021/07/02 06:57:51;;;;;;;;;39.00;35.00;;;;;19.85;64.15;101463.81;6268283;22;45412;-92
2021/07/02 07:00:18;;;;;;;;;39.50;34.00;;;;;19.87;64.49;101463.72;6242655;22;45620;-91
2021/07/02 07:02:47;;;;;;;;;34.00;31.00;;;;;19.92;64.44;101463.41;6243661;22;45425;-91
2021/07/02 07:05:13;;;;;;;;;41.25;33.75;;;;;19.94;64.11;101470.31;6268179;22;47269;-92
2021/07/02 07:07:39;;;;;;;;;36.00;33.00;;;;;19.99;64.22;101468.25;6242853;22;45215;-92
2021/07/02 07:10:06;;;;;;;;;37.25;32.25;;;;;19.98;63.68;101463.06;6243144;22;45352;-91
2021/07/02 07:12:31;;;;;;;;;34.00;32.50;;;;;20.02;63.48;101470.69;6243053;22;45399;-91
2021/07/02 07:14:57;;;;;;;;;39.00;32.50;;;;;20.01;63.66;101462.88;6242087;22;47267;-92
2021/07/02 07:17:24;;;;;;;;;35.50;32.75;;;;;20.04;63.49;101462.66;6268338;22;45762;-92
2021/07/02 07:19:50;;;;;;;;;41.75;35.75;;;;;20.07;63.40;101470.41;6242823;22;45376;-92
2021/07/02 07:22:15;;;;;;;;;38.25;34.00;;;;;20.10;63.44;101477.28;6243244;22;45500;-91
2021/07/02 07:24:41;;;;;;;;;38.50;32.50;;;;;20.12;63.24;101464.81;6242858;22;47435;-91
2021/07/02 07:27:06;;;;;;;;;34.50;32.50;;;;;20.15;63.09;101472.53;6243306;22;45267;-92
2021/07/02 07:29:32;;;;;;;;;33.25;30.00;;;;;20.17;62.67;101475.91;6243434;22;45187;-92
2021/07/02 07:31:58;;;;;;;;;34.00;32.25;;;;;20.19;62.61;101481.09;6269364;22;45298;-91
2021/07/02 07:34:42;;;;;;;;;32.25;29.75;;;;;20.22;62.30;101478.28;6243050;22;47204;-92
2021/07/02 07:37:11;;;;;;;;;37.50;31.25;;;;;20.23;62.19;101472.03;6243078;22;45251;-93
2021/07/02 07:39:37;;;;;;;;;37.00;33.25;;;;;20.24;62.10;101477.25;6243515;22;44830;-92
2021/07/02 07:42:03;;;;;;;;;33.50;32.00;;;;;20.32;62.45;101482.00;6269885;22;45263;-93
2021/07/02 07:44:29;;;;;;;;;39.25;33.00;;;;;20.38;62.18;101480.75;6243426;22;48295;-92
2021/07/02 07:46:55;;;;;;;;;35.75;32.75;;;;;20.41;62.25;101485.84;6268650;22;46200;-92
2021/07/02 07:49:23;;;;;;;;;31.75;30.00;;;;;20.48;62.19;101481.84;6269484;22;45441;-92
2021/07/02 07:51:55;;;;;;;;;32.50;29.75;;;;;20.51;62.01;101476.34;6269496;22;45243;-92
2021/07/02 07:54:23;;;;;;;;;33.75;30.75;;;;;20.56;61.57;101468.94;6243349;22;47342;-93
2021/07/02 07:56:51;;;;;;;;;30.50;29.25;;;;;20.63;61.85;101485.25;6243085;22;45320;-93
2021/07/02 07:59:30;;;;;;;;;34.75;31.75;;;;;20.68;61.14;101487.56;6243316;22;45440;-93
2021/07/02 08:01:55;;;;;;;;;34.75;30.75;;;;;20.74;61.08;101488.97;6243485;22;45449;-93
2021/07/02 08:04:21;;;;;;;;;28.75;27.00;;;;;20.79;61.12;101486.88;6242718;22;47072;-92
2021/07/02 08:06:47;;;;;;;;;29.75;27.25;;;;;20.84;61.40;101484.75;6242989;22;45205;-92
2021/07/02 08:09:14;;;;;;;;;30.75;29.50;;;;;20.89;60.98;101481.81;6243094;22;45426;-92
2021/07/02 08:11:41;;;;;;;;;27.50;25.50;;;;;20.96;61.16;101481.31;6243863;22;45227;-93
2021/07/02 08:14:07;;;;;;;;;28.25;27.25;;;;;21.03;60.70;101483.53;6242499;22;47730;-92
2021/07/02 08:16:32;;;;;;;;;30.75;29.00;;;;;21.12;60.53;101493.47;6268804;22;45396;-93
2021/07/02 08:18:58;;;;;;;;;30.00;27.75;;;;;21.19;60.00;101489.44;6245115;22;45180;-91
2021/07/02 08:21:23;;;;;;;;;28.00;26.75;;;;;21.21;59.71;101487.53;6243311;22;45418;-92
2021/07/02 08:23:49;;;;;;;;;24.00;22.00;;;;;21.30;59.84;101488.69;6243120;22;47094;-92
2021/07/02 08:26:14;;;;;;;;;26.00;23.75;;;;;21.35;59.75;101483.09;6242778;22;45401;-92
2021/07/02 08:31:24;;;;;;;;;23.25;23.25;;;;;21.50;59.51;101499.69;6244935;22;45389;-91
2021/07/02 08:33:50;;;;;;;;;30.75;27.75;;;;;21.55;58.89;101507.31;6267682;22;47305;-92
2021/07/02 08:36:15;;;;;;;;;25.00;22.75;;;;;21.59;58.26;101498.19;6267926;22;45218;-91
2021/07/02 08:38:41;;;;;;;;;28.50;24.75;;;;;21.62;58.21;101496.16;6242959;22;45228;-92
2021/07/02 08:41:11;;;;;;;;;25.50;25.50;;;;;21.65;57.69;101484.50;6242553;22;45377;-92
2021/07/02 08:43:37;;;;;;;;;19.00;17.00;;;;;21.71;58.35;101481.44;6244110;22;45668;-91
2021/07/02 08:46:03;;;;;;;;;24.00;23.25;;;;;21.83;57.66;101492.13;6243224;22;45582;-93
2021/07/02 08:48:30;;;;;;;;;24.00;23.50;;;;;21.88;57.69;101480.25;6269245;22;45422;-92
2021/07/02 08:50:55;;;;;;;;;23.50;22.50;;;;;21.98;57.45;101488.38;6242834;22;45484;-91
2021/07/02 08:53:21;;;;;;;;;24.75;22.00;;;;;22.04;56.13;101484.44;6242135;22;46995;-92
2021/07/02 08:55:47;;;;;;;;;20.50;17.50;;;;;22.14;56.23;101488.06;6241923;22;45460;-92
2021/07/02 08:58:14;;;;;;;;;19.25;19.25;;;;;22.24;56.37;101484.75;6265993;22;45371;-92
2021/07/02 09:00:46;;;;;;;;;20.75;20.75;;;;;22.33;56.17;101488.53;6212100;22;45413;-93
2021/07/02 09:03:36;;;;;;;;;17.67;16.67;;;;;22.41;55.63;101480.84;6212315;22;47182;-92
2021/07/02 09:06:19;;;;;;;;;22.75;20.50;;;;;22.46;54.83;101475.19;6211116;22;48969;-92
2021/07/02 09:08:59;;;;;;;;;20.25;19.75;;;;;22.53;55.05;101473.78;6213067;22;45271;-92
2021/07/02 09:11:31;;;;;;;;;23.00;20.75;;;;;22.61;55.51;101475.88;6212510;22;45376;-93
2021/07/02 09:13:59;;;;;;;;;18.75;17.50;;;;;22.71;54.54;101476.03;6212131;22;47180;-93
2021/07/02 09:16:36;;;;;;;;;19.75;17.75;;;;;22.75;54.74;101475.69;6211980;22;45385;-93
2021/07/02 09:19:27;;;;;;;;;18.75;18.25;;;;;22.85;53.82;101470.50;6212138;22;45252;-92
2021/07/02 09:21:52;;;;;;;;;17.00;16.50;;;;;22.93;53.64;101473.44;6211499;22;45386;-93
2021/07/02 09:24:42;;;;;;;;;16.00;15.00;;;;;23.03;52.57;101465.59;6211712;22;45331;-91
2021/07/02 09:27:21;;;;;;;;;16.33;15.33;;;;;23.17;53.43;101466.31;6211900;22;45267;-93
2021/07/02 09:30:00;;;;;;;;;12.00;12.00;;;;;23.28;53.44;101457.50;6212321;22;45413;-92
2021/07/02 09:32:29;;;;;;;;;18.00;17.25;;;;;23.40;52.66;101453.06;6212263;22;45197;-92
2021/07/02 09:35:00;;;;;;;;;16.00;15.33;;;;;23.52;52.19;101459.22;6211396;22;47192;-93
2021/07/02 09:37:34;;;;;;;;;14.67;14.67;;;;;23.61;50.88;101454.00;6211468;22;45359;-92
2021/07/02 09:40:20;;;;;;;;;;;;;;;;;;;;;
2021/07/02 09:42:46;;;;;;;;;17.25;15.25;;;;;23.78;51.54;101446.47;6212666;22;63580;-93
2021/07/02 09:45:17;;;;;;;;;16.33;15.00;;;;;23.87;53.00;101436.91;6212631;22;47305;-93
2021/07/02 09:47:45;;;;;;;;;18.00;17.00;;;;;23.99;52.19;101449.19;6213002;22;45394;-93
2021/07/02 09:50:21;;;;;;;;;18.00;17.67;;;;;24.09;50.93;101437.81;6212369;22;45205;-92
2021/07/02 09:52:53;;;;;;;;;15.33;14.33;;;;;24.23;52.22;101444.66;6213326;22;45240;-92
2021/07/02 09:55:21;;;;;;;;;15.67;15.67;;;;;24.37;51.94;101446.16;6212658;22;47326;-91
2021/07/02 09:57:47;;;;;;;;;17.00;15.50;;;;;24.43;51.79;101442.97;6212300;22;45201;-92
2021/07/02 10:00:15;;;;;;;;;16.00;15.00;;;;;24.54;51.54;101450.06;6212898;22;45208;-93
2021/07/02 10:03:02;;;;;;;;;16.33;16.00;;;;;24.64;51.14;101452.78;6213500;22;45587;-93
2021/07/02 10:05:30;;;;;;;;;16.67;16.00;;;;;24.76;51.40;101442.91;6181076;22;46739;-92
2021/07/02 10:08:05;;;;;;;;;15.33;14.67;;;;;24.90;50.99;101437.25;6213196;22;45288;-93
2021/07/02 10:10:33;;;;;;;;;12.67;12.67;;;;;25.02;49.74;101439.81;6213106;22;45165;-92
2021/07/02 10:13:01;;;;;;;;;12.33;12.33;;;;;25.17;50.45;101442.97;6213098;22;45266;-93
2021/07/02 10:15:28;;;;;;;;;16.33;15.67;;;;;25.37;49.45;101435.91;6212567;22;47947;-93
2021/07/02 10:18:00;;;;;;;;;14.00;14.00;;;;;25.58;50.00;101435.00;6211978;22;45277;-92
2021/07/02 10:20:27;;;;;;;;;15.00;15.00;;;;;25.74;49.00;101429.13;6212406;22;45356;-93
2021/07/02 10:22:59;;;;;;;;;14.67;14.67;;;;;25.85;48.62;101431.66;6213125;22;45397;-92
2021/07/02 10:25:35;;;;;;;;;14.33;14.00;;;;;25.92;48.19;101439.94;6212649;22;46708;-93
2021/07/02 10:28:01;;;;;;;;;13.67;12.67;;;;;25.95;47.81;101445.00;6213168;22;45500;-93
2021/07/02 10:30:36;;;;;;;;;14.33;13.00;;;;;25.88;47.66;101434.03;6212947;22;45430;-93
2021/07/02 10:33:05;;;;;;;;;13.33;13.33;;;;;25.80;46.92;101441.91;6212970;22;45406;-92
2021/07/02 10:35:33;;;;;;;;;13.50;12.00;;;;;25.75;47.37;101442.31;6211815;22;47033;-92
2021/07/02 10:38:05;;;;;;;;;10.33;9.67;;;;;25.73;48.11;101433.63;6212541;22;45217;-93
2021/07/02 10:40:47;;;;;;;;;15.33;14.00;;;;;25.79;47.57;101439.38;6212446;22;45263;-93
2021/07/02 10:43:25;;;;;;;;;12.67;12.67;;;;;25.83;47.59;101444.28;6212601;22;45480;-93
2021/07/02 10:46:12;;;;;;;;;10.67;10.67;;;;;25.90;48.42;101441.91;6212409;22;47316;-93
2021/07/02 10:48:54;;;;;;;;;14.33;14.33;;;;;25.96;47.57;101449.34;6212605;22;45531;-92
2021/07/02 10:51:47;;;;;;;;;13.33;12.67;;;;;25.95;46.73;101446.81;6212265;22;45935;-92
2021/07/02 10:54:16;;;;;;;;;12.67;12.00;;;;;25.92;46.13;101447.94;6212733;22;45383;-92
2021/07/02 10:57:00;;;;;;;;;11.00;11.00;;;;;25.84;46.73;101438.00;6208420;22;46675;-93
2021/07/02 10:59:35;;;;;;;;;11.00;11.00;;;;;25.86;47.04;101440.50;6210386;22;45409;-92
2021/07/02 11:02:07;;;;;;;;;11.67;11.00;;;;;25.87;47.45;101442.19;6210929;22;44782;-92
2021/07/02 11:05:13;;;;;;;;;9.33;8.33;;;;;25.82;47.01;101429.28;6210971;22;45505;-91
2021/07/02 11:07:43;;;;;;;;;13.00;12.33;;;;;25.80;47.25;101431.25;6116575;23;47067;-94
2021/07/02 11:10:11;;;;;;;;;14.33;13.67;;;;;25.78;47.13;101419.03;6122688;23;45413;-92
2021/07/02 11:12:43;;;;;;;;;15.00;14.00;;;;;25.79;47.06;101426.91;6124116;23;45229;-93
2021/07/02 11:15:18;;;;;;;;;13.00;13.00;;;;;25.80;47.05;101422.41;6123397;23;45603;-92
2021/07/02 11:17:45;;;;;;;;;17.33;12.33;;;;;25.89;47.10;101414.41;6122934;23;46765;-91